createdAt,value
2022-08-25T00:02:55.203Z,6.30
2022-08-25T00:08:00.710Z,5.85
2022-08-25T00:13:04.883Z,5.80
2022-08-25T00:18:19.462Z,5.88
2022-08-25T00:23:24.815Z,5.38
2022-08-25T00:28:28.667Z,5.55
2022-08-25T00:33:32.211Z,5.10
2022-08-25T00:38:38.175Z,4.03
2022-08-25T00:43:47.523Z,3.90
2022-08-25T00:48:54.714Z,4.05
2022-08-25T00:53:59.675Z,4.07
2022-08-25T00:59:04.833Z,4.32
2022-08-25T01:04:08.310Z,3.85
2022-08-25T01:09:14.481Z,4.72
2022-08-25T01:14:20.391Z,4.38
2022-08-25T01:19:23.343Z,4.15
2022-08-25T01:24:35.430Z,4.95
2022-08-25T01:29:38.945Z,4.40
2022-08-25T01:34:45.594Z,5.38
2022-08-25T01:39:50.260Z,5.63
2022-08-25T01:44:53.322Z,5.30
2022-08-25T01:49:56.281Z,5.50
2022-08-25T01:55:00.558Z,6.13
2022-08-25T02:00:05.815Z,4.97
2022-08-25T02:05:20.318Z,5.70
2022-08-25T02:10:27.811Z,4.90
2022-08-25T02:15:30.938Z,5.35
2022-08-25T02:20:36.350Z,6.70
2022-08-25T02:25:42.153Z,6.18
2022-08-25T02:30:45.921Z,6.50
2022-08-25T02:35:49.324Z,6.18
2022-08-25T02:40:53.673Z,6.55
2022-08-25T02:45:56.778Z,7.18
2022-08-25T02:51:02.155Z,6.55
2022-08-25T02:56:07.605Z,6.30
2022-08-25T03:01:12.195Z,7.00
2022-08-25T03:06:20.027Z,6.10
2022-08-25T03:11:25.084Z,6.72
2022-08-25T03:16:28.302Z,6.13
2022-08-25T03:21:32.843Z,7.30
2022-08-25T03:26:55.911Z,6.90
2022-08-25T03:31:59.827Z,6.68
2022-08-25T03:37:02.903Z,6.10
2022-08-25T03:42:08.378Z,6.30
2022-08-25T03:47:11.320Z,6.95
2022-08-25T03:52:14.387Z,6.47
2022-08-25T03:57:20.718Z,6.90
2022-08-25T04:02:23.898Z,7.57
2022-08-25T04:07:26.995Z,7.47
2022-08-25T04:12:33.522Z,7.88
2022-08-25T04:17:39.725Z,7.07
2022-08-25T04:22:44.846Z,7.10
2022-08-25T04:27:49.602Z,7.35
2022-08-25T04:32:52.836Z,7.07
2022-08-25T04:37:55.797Z,8.02
2022-08-25T04:43:01.675Z,8.05
2022-08-25T04:48:05.000Z,8.02
2022-08-25T04:53:08.233Z,8.48
2022-08-25T04:58:16.482Z,8.15
2022-08-25T05:03:19.894Z,7.63
2022-08-25T05:08:23.244Z,8.15
2022-08-25T05:13:28.615Z,7.80
2022-08-25T05:18:34.695Z,7.47
2022-08-25T05:23:38.197Z,7.40
2022-08-25T05:28:43.144Z,7.88
2022-08-25T05:33:46.257Z,9.07
2022-08-25T05:38:49.506Z,8.95
2022-08-25T05:43:53.851Z,8.60
2022-08-25T05:48:56.934Z,8.65
2022-08-25T05:54:00.030Z,7.43
2022-08-25T05:59:09.160Z,8.68
2022-08-25T06:04:12.710Z,7.10
2022-08-25T06:09:15.778Z,7.10
2022-08-25T06:14:21.212Z,6.85
2022-08-25T06:19:24.315Z,6.47
2022-08-25T06:24:28.844Z,6.03
2022-08-25T06:29:33.284Z,6.00
2022-08-25T06:34:37.422Z,6.45
2022-08-25T06:39:40.591Z,5.80
2022-08-25T06:44:45.384Z,5.45
2022-08-25T06:49:48.524Z,5.40
2022-08-25T06:54:52.228Z,5.10
2022-08-25T06:59:56.537Z,4.85
2022-08-25T07:05:00.474Z,3.72
2022-08-25T07:10:03.473Z,3.13
2022-08-25T07:15:19.884Z,3.35
2022-08-25T07:25:26.171Z,3.38
2022-08-25T07:30:32.416Z,3.70
2022-08-25T07:35:37.793Z,3.40
2022-08-25T07:40:43.033Z,3.35
2022-08-25T07:45:49.412Z,3.42
2022-08-25T07:50:53.242Z,3.50
2022-08-25T07:55:56.241Z,3.58
2022-08-25T08:01:00.723Z,3.55
2022-08-25T08:06:08.919Z,3.85
2022-08-25T08:11:16.474Z,3.50
2022-08-25T08:16:21.880Z,3.05
2022-08-25T08:21:27.240Z,3.40
2022-08-25T08:26:55.257Z,3.30
2022-08-25T08:31:58.971Z,2.78
2022-08-25T08:37:02.800Z,2.90
2022-08-25T08:42:18.845Z,2.78
2022-08-25T08:47:35.728Z,2.70
2022-08-25T08:52:44.470Z,2.45
2022-08-25T08:57:51.866Z,2.75
2022-08-25T09:03:04.666Z,2.58
2022-08-25T09:08:12.937Z,3.95
2022-08-25T09:13:26.163Z,2.40
2022-08-25T09:18:41.209Z,2.58
2022-08-25T09:24:11.781Z,2.28
2022-08-25T09:29:21.819Z,2.38
2022-08-25T09:34:32.019Z,2.45
2022-08-25T09:39:35.006Z,2.30
2022-08-25T09:44:43.819Z,2.30
2022-08-25T09:49:50.749Z,2.05
2022-08-25T09:54:55.007Z,2.38
2022-08-25T09:59:58.270Z,2.40
2022-08-25T10:05:19.933Z,1.85
2022-08-25T10:10:32.415Z,2.10
2022-08-25T10:15:37.254Z,2.10
2022-08-25T10:20:42.250Z,2.20
2022-08-25T10:25:59.238Z,1.95
2022-08-25T10:31:12.420Z,2.10
2022-08-25T10:36:21.570Z,2.28
2022-08-25T10:41:51.329Z,1.92
2022-08-25T10:47:07.121Z,1.83
2022-08-25T10:52:17.471Z,2.13
2022-08-25T10:57:28.229Z,2.10
2022-08-25T11:03:03.409Z,2.40
2022-08-25T11:08:15.551Z,2.88
2022-08-25T11:13:26.285Z,1.70
2022-08-25T11:18:31.906Z,1.83
2022-08-25T11:23:40.902Z,1.77
2022-08-25T11:28:55.439Z,2.05
2022-08-25T11:34:00.576Z,1.90
2022-08-25T11:39:18.018Z,2.30
2022-08-25T11:44:53.301Z,1.73
2022-08-25T11:50:05.076Z,1.75
2022-08-25T11:55:14.443Z,1.90
2022-08-25T12:00:38.955Z,1.50
2022-08-25T12:05:53.623Z,1.23
2022-08-25T12:11:07.209Z,1.30
2022-08-25T12:16:43.542Z,1.48
2022-08-25T12:21:46.890Z,1.80
2022-08-25T12:26:58.622Z,1.50
2022-08-25T12:32:18.984Z,1.50
2022-08-25T12:37:25.663Z,1.20
2022-08-25T12:42:36.405Z,1.52
2022-08-25T12:47:44.737Z,1.48
2022-08-25T12:52:48.653Z,1.50
2022-08-25T12:57:58.711Z,1.30
2022-08-25T13:03:35.225Z,1.83
2022-08-25T13:09:22.059Z,1.23
2022-08-25T13:14:37.794Z,1.85
2022-08-25T13:19:41.490Z,1.30
2022-08-25T13:24:47.489Z,1.48
2022-08-25T13:29:58.108Z,1.52
2022-08-25T13:35:17.604Z,1.52
2022-08-25T13:40:26.719Z,1.55
2022-08-25T13:45:41.895Z,1.35
2022-08-25T13:50:45.292Z,1.60
2022-08-25T13:55:57.198Z,1.63
2022-08-25T14:01:22.596Z,1.67
2022-08-25T14:06:37.056Z,1.50
2022-08-25T14:11:44.686Z,1.70
2022-08-25T14:16:57.407Z,1.52
2022-08-25T14:22:03.029Z,1.33
2022-08-25T14:27:06.544Z,1.20
2022-08-25T14:32:11.325Z,1.48
2022-08-25T14:37:17.394Z,1.30
2022-08-25T14:42:20.460Z,1.50
2022-08-25T14:47:31.824Z,1.70
2022-08-25T14:52:35.672Z,1.70
2022-08-25T14:57:39.018Z,1.60
2022-08-25T15:02:46.731Z,1.50
2022-08-25T15:08:07.672Z,1.63
2022-08-25T15:13:15.253Z,1.60
2022-08-25T15:18:20.055Z,1.40
2022-08-25T15:23:40.173Z,1.30
2022-08-25T15:28:49.674Z,1.50
2022-08-25T15:33:54.763Z,1.73
2022-08-25T15:38:57.887Z,1.48
2022-08-25T15:44:00.853Z,1.50
2022-08-25T15:49:05.392Z,1.52
2022-08-25T15:54:11.042Z,1.30
2022-08-25T15:59:16.884Z,2.17
2022-08-25T16:04:21.375Z,1.98
2022-08-25T16:09:24.781Z,2.20
2022-08-25T16:14:28.203Z,1.40
2022-08-25T16:19:32.938Z,1.52
2022-08-25T16:24:38.451Z,1.80
2022-08-25T16:29:43.828Z,1.85
2022-08-25T16:34:48.208Z,5.57
2022-08-25T16:39:53.870Z,6.80
2022-08-25T16:44:58.213Z,9.88
2022-08-25T16:50:05.009Z,10.50
2022-08-25T16:55:17.658Z,12.25
2022-08-25T17:00:23.743Z,11.50
2022-08-25T17:05:29.230Z,12.13
2022-08-25T17:10:33.590Z,10.50
2022-08-25T17:15:41.262Z,11.75
2022-08-25T17:20:46.635Z,11.63
2022-08-25T17:25:52.073Z,15.00
2022-08-25T17:30:58.552Z,19.02
2022-08-25T17:36:04.839Z,19.27
2022-08-25T17:41:09.595Z,21.65
2022-08-25T17:46:13.181Z,24.60
2022-08-25T17:51:17.800Z,21.35
2022-08-25T17:56:23.874Z,21.25
2022-08-25T18:01:29.222Z,23.42
2022-08-25T18:06:34.764Z,25.95
2022-08-25T18:11:37.796Z,23.55
2022-08-25T18:16:42.259Z,25.85
2022-08-25T18:21:46.925Z,26.30
2022-08-25T18:26:50.435Z,30.27
2022-08-25T18:31:57.030Z,29.75
2022-08-25T18:37:19.848Z,34.00
2022-08-25T18:42:22.918Z,34.08
2022-08-25T18:47:25.983Z,30.90
2022-08-25T18:52:30.418Z,29.73
2022-08-25T18:57:36.861Z,28.13
2022-08-25T19:02:41.968Z,30.05
2022-08-25T19:07:52.063Z,26.98
2022-08-25T19:12:57.102Z,25.65
2022-08-25T19:18:00.790Z,22.48
2022-08-25T19:23:10.916Z,21.92
2022-08-25T19:28:14.131Z,20.83
2022-08-25T19:33:42.195Z,19.70
2022-08-25T19:38:41.886Z,19.33
2022-08-25T19:43:56.336Z,18.20
2022-08-25T19:49:04.900Z,15.20
2022-08-25T19:54:13.863Z,14.60
2022-08-25T19:59:17.917Z,12.65
2022-08-25T20:04:21.327Z,12.52
2022-08-25T20:09:39.629Z,11.75
2022-08-25T20:14:43.826Z,12.90
2022-08-25T20:19:47.120Z,12.93
2022-08-25T20:24:55.795Z,13.00
2022-08-25T20:29:59.747Z,15.95
2022-08-25T20:35:09.377Z,16.00
2022-08-25T20:40:20.776Z,16.73
2022-08-25T20:45:28.973Z,15.60
2022-08-25T20:50:33.660Z,15.90
2022-08-25T20:55:42.555Z,15.25
2022-08-25T21:00:47.914Z,13.90
2022-08-25T21:05:53.596Z,13.43
2022-08-25T21:10:58.596Z,12.07
2022-08-25T21:16:03.038Z,11.55
2022-08-25T21:21:14.103Z,10.98
2022-08-25T21:26:20.807Z,9.23
2022-08-25T21:31:24.041Z,7.90
2022-08-25T21:36:29.819Z,6.70
2022-08-25T21:41:39.139Z,4.50
2022-08-25T21:46:54.534Z,3.33
2022-08-25T21:52:02.416Z,3.30
2022-08-25T21:57:08.761Z,2.85
2022-08-25T22:02:19.283Z,2.90
2022-08-25T22:07:25.695Z,2.40
2022-08-25T22:12:30.128Z,2.50
2022-08-25T22:17:34.305Z,2.42
2022-08-25T22:22:37.545Z,2.67
2022-08-25T22:27:42.107Z,2.47
2022-08-25T22:32:45.404Z,2.90
2022-08-25T22:37:48.708Z,2.95
2022-08-25T22:42:53.322Z,3.42
2022-08-25T22:47:56.593Z,2.60
2022-08-25T22:52:59.594Z,2.95
2022-08-25T22:58:04.730Z,2.80
2022-08-25T23:03:07.987Z,2.92
2022-08-25T23:08:11.129Z,2.78
2022-08-25T23:13:25.019Z,3.83
2022-08-25T23:18:43.068Z,2.50
2022-08-25T23:23:47.670Z,2.50
2022-08-25T23:28:53.810Z,3.40
2022-08-25T23:34:01.291Z,2.42
2022-08-25T23:39:07.731Z,2.88
2022-08-25T23:44:17.332Z,2.60
2022-08-25T23:49:23.507Z,3.42
2022-08-25T23:54:31.182Z,3.35
2022-08-25T23:59:37.837Z,3.65
